sensor_id;sensor_type;location;lat;lon;timestamp;P1;durP1;ratioP1;P2;durP2;ratioP2
48596;SDS011;34382;43.160;24.148;2022-12-29T00:00:20;16.30;;;10.13;;
48596;SDS011;34382;43.160;24.148;2022-12-29T00:01:52;16.98;;;10.07;;
48596;SDS011;34382;43.160;24.148;2022-12-29T00:03:24;17.85;;;10.40;;
48596;SDS011;34382;43.160;24.148;2022-12-29T00:04:57;16.40;;;9.98;;
48596;SDS011;34382;43.160;24.148;2022-12-29T00:06:29;15.95;;;9.80;;
48596;SDS011;34382;43.160;24.148;2022-12-29T00:08:01;16.50;;;9.80;;
48596;SDS011;34382;43.160;24.148;2022-12-29T00:09:34;17.42;;;11.10;;
48596;SDS011;34382;43.160;24.148;2022-12-29T00:11:07;16.77;;;10.27;;
48596;SDS011;34382;43.160;24.148;2022-12-29T00:12:46;17.60;;;10.02;;
48596;SDS011;34382;43.160;24.148;2022-12-29T00:14:37;18.65;;;11.60;;
48596;SDS011;34382;43.160;24.148;2022-12-29T00:16:28;18.00;;;11.13;;
48596;SDS011;34382;43.160;24.148;2022-12-29T00:18:00;20.77;;;12.50;;
48596;SDS011;34382;43.160;24.148;2022-12-29T00:19:35;20.80;;;11.93;;
48596;SDS011;34382;43.160;24.148;2022-12-29T00:21:26;18.50;;;13.10;;
48596;SDS011;34382;43.160;24.148;2022-12-29T00:23:18;21.73;;;15.23;;
48596;SDS011;34382;43.160;24.148;2022-12-29T00:25:10;24.80;;;16.02;;
48596;SDS011;34382;43.160;24.148;2022-12-29T00:28:51;26.95;;;15.95;;
48596;SDS011;34382;43.160;24.148;2022-12-29T00:30:42;24.67;;;16.33;;
48596;SDS011;34382;43.160;24.148;2022-12-29T00:32:32;27.25;;;16.05;;
48596;SDS011;34382;43.160;24.148;2022-12-29T00:34:23;24.40;;;15.45;;
48596;SDS011;34382;43.160;24.148;2022-12-29T00:37:57;27.40;;;15.05;;
48596;SDS011;34382;43.160;24.148;2022-12-29T00:39:50;24.55;;;14.80;;
48596;SDS011;34382;43.160;24.148;2022-12-29T00:41:41;22.38;;;14.30;;
48596;SDS011;34382;43.160;24.148;2022-12-29T00:43:31;22.27;;;13.93;;
48596;SDS011;34382;43.160;24.148;2022-12-29T00:45:21;20.10;;;13.32;;
48596;SDS011;34382;43.160;24.148;2022-12-29T00:46:53;21.77;;;14.60;;
48596;SDS011;34382;43.160;24.148;2022-12-29T00:48:25;21.83;;;14.38;;
48596;SDS011;34382;43.160;24.148;2022-12-29T00:50:16;21.52;;;14.07;;
48596;SDS011;34382;43.160;24.148;2022-12-29T00:51:48;22.08;;;13.15;;
48596;SDS011;34382;43.160;24.148;2022-12-29T00:53:20;21.13;;;12.63;;
48596;SDS011;34382;43.160;24.148;2022-12-29T00:54:52;20.08;;;12.98;;
48596;SDS011;34382;43.160;24.148;2022-12-29T00:56:27;19.40;;;12.45;;
48596;SDS011;34382;43.160;24.148;2022-12-29T00:57:59;21.35;;;12.13;;
48596;SDS011;34382;43.160;24.148;2022-12-29T00:59:32;18.15;;;12.52;;
48596;SDS011;34382;43.160;24.148;2022-12-29T01:01:09;19.70;;;12.20;;
48596;SDS011;34382;43.160;24.148;2022-12-29T01:02:41;19.40;;;12.45;;
48596;SDS011;34382;43.160;24.148;2022-12-29T01:04:13;17.67;;;10.98;;
48596;SDS011;34382;43.160;24.148;2022-12-29T01:05:45;20.20;;;12.65;;
48596;SDS011;34382;43.160;24.148;2022-12-29T01:07:17;22.60;;;13.98;;
48596;SDS011;34382;43.160;24.148;2022-12-29T01:08:50;18.58;;;12.65;;
48596;SDS011;34382;43.160;24.148;2022-12-29T01:10:42;20.15;;;12.73;;
48596;SDS011;34382;43.160;24.148;2022-12-29T01:12:14;17.40;;;11.43;;
48596;SDS011;34382;43.160;24.148;2022-12-29T01:13:48;21.35;;;13.50;;
48596;SDS011;34382;43.160;24.148;2022-12-29T01:15:20;26.17;;;16.48;;
48596;SDS011;34382;43.160;24.148;2022-12-29T01:16:53;17.63;;;11.45;;
48596;SDS011;34382;43.160;24.148;2022-12-29T01:18:25;19.13;;;11.57;;
48596;SDS011;34382;43.160;24.148;2022-12-29T01:19:58;16.65;;;11.40;;
48596;SDS011;34382;43.160;24.148;2022-12-29T01:21:30;17.90;;;11.13;;
48596;SDS011;34382;43.160;24.148;2022-12-29T01:23:02;16.35;;;10.88;;
48596;SDS011;34382;43.160;24.148;2022-12-29T01:24:34;16.73;;;9.70;;
48596;SDS011;34382;43.160;24.148;2022-12-29T01:26:10;17.95;;;10.52;;
48596;SDS011;34382;43.160;24.148;2022-12-29T01:27:44;17.05;;;9.88;;
48596;SDS011;34382;43.160;24.148;2022-12-29T01:29:16;18.42;;;10.73;;
48596;SDS011;34382;43.160;24.148;2022-12-29T01:30:48;15.20;;;10.00;;
48596;SDS011;34382;43.160;24.148;2022-12-29T01:32:20;16.75;;;9.98;;
48596;SDS011;34382;43.160;24.148;2022-12-29T01:33:52;15.15;;;9.60;;
48596;SDS011;34382;43.160;24.148;2022-12-29T01:35:25;18.60;;;11.90;;
48596;SDS011;34382;43.160;24.148;2022-12-29T01:36:57;17.67;;;11.07;;
48596;SDS011;34382;43.160;24.148;2022-12-29T01:38:29;17.92;;;11.23;;
48596;SDS011;34382;43.160;24.148;2022-12-29T01:40:01;19.40;;;10.23;;
48596;SDS011;34382;43.160;24.148;2022-12-29T01:41:33;17.55;;;10.48;;
48596;SDS011;34382;43.160;24.148;2022-12-29T01:43:07;18.33;;;11.35;;
48596;SDS011;34382;43.160;24.148;2022-12-29T01:48:06;18.05;;;11.40;;
48596;SDS011;34382;43.160;24.148;2022-12-29T01:49:40;20.58;;;11.10;;
48596;SDS011;34382;43.160;24.148;2022-12-29T01:51:12;20.00;;;11.57;;
48596;SDS011;34382;43.160;24.148;2022-12-29T01:52:49;17.10;;;10.90;;
48596;SDS011;34382;43.160;24.148;2022-12-29T01:54:31;17.17;;;10.35;;
48596;SDS011;34382;43.160;24.148;2022-12-29T01:56:07;16.98;;;9.80;;
48596;SDS011;34382;43.160;24.148;2022-12-29T01:57:45;17.63;;;10.55;;
48596;SDS011;34382;43.160;24.148;2022-12-29T01:59:20;16.30;;;10.75;;
48596;SDS011;34382;43.160;24.148;2022-12-29T02:00:54;20.50;;;12.10;;
48596;SDS011;34382;43.160;24.148;2022-12-29T02:02:27;18.05;;;10.85;;
48596;SDS011;34382;43.160;24.148;2022-12-29T02:04:03;16.55;;;9.80;;
48596;SDS011;34382;43.160;24.148;2022-12-29T02:07:26;15.20;;;9.30;;
48596;SDS011;34382;43.160;24.148;2022-12-29T02:08:59;16.50;;;9.68;;
48596;SDS011;34382;43.160;24.148;2022-12-29T02:10:32;15.30;;;8.88;;
48596;SDS011;34382;43.160;24.148;2022-12-29T02:12:07;13.25;;;7.75;;
48596;SDS011;34382;43.160;24.148;2022-12-29T02:13:42;12.85;;;8.00;;
48596;SDS011;34382;43.160;24.148;2022-12-29T02:15:14;13.27;;;7.97;;
48596;SDS011;34382;43.160;24.148;2022-12-29T02:16:57;16.30;;;8.77;;
48596;SDS011;34382;43.160;24.148;2022-12-29T02:20:47;14.63;;;8.95;;
48596;SDS011;34382;43.160;24.148;2022-12-29T02:28:04;14.55;;;7.55;;
48596;SDS011;34382;43.160;24.148;2022-12-29T02:32:05;11.40;;;6.28;;
48596;SDS011;34382;43.160;24.148;2022-12-29T02:40:27;12.52;;;6.97;;
48596;SDS011;34382;43.160;24.148;2022-12-29T02:45:54;11.68;;;6.47;;
48596;SDS011;34382;43.160;24.148;2022-12-29T02:50:39;12.82;;;6.82;;
48596;SDS011;34382;43.160;24.148;2022-12-29T02:52:19;11.70;;;6.85;;
48596;SDS011;34382;43.160;24.148;2022-12-29T02:53:55;11.35;;;6.28;;
48596;SDS011;34382;43.160;24.148;2022-12-29T02:55:48;12.88;;;7.07;;
48596;SDS011;34382;43.160;24.148;2022-12-29T02:58:52;11.52;;;6.28;;
48596;SDS011;34382;43.160;24.148;2022-12-29T03:00:24;12.65;;;7.10;;
48596;SDS011;34382;43.160;24.148;2022-12-29T03:09:55;11.93;;;6.72;;
48596;SDS011;34382;43.160;24.148;2022-12-29T03:12:40;13.63;;;7.10;;
48596;SDS011;34382;43.160;24.148;2022-12-29T03:13:51;15.00;;;8.52;;
48596;SDS011;34382;43.160;24.148;2022-12-29T03:19:37;12.88;;;7.10;;
48596;SDS011;34382;43.160;24.148;2022-12-29T03:21:16;11.38;;;6.50;;
48596;SDS011;34382;43.160;24.148;2022-12-29T03:22:51;12.02;;;6.25;;
48596;SDS011;34382;43.160;24.148;2022-12-29T03:24:34;13.05;;;6.93;;
48596;SDS011;34382;43.160;24.148;2022-12-29T03:26:09;13.85;;;7.28;;
48596;SDS011;34382;43.160;24.148;2022-12-29T03:27:48;13.65;;;7.90;;
48596;SDS011;34382;43.160;24.148;2022-12-29T03:29:33;13.00;;;6.88;;
48596;SDS011;34382;43.160;24.148;2022-12-29T03:31:08;11.98;;;7.03;;
48596;SDS011;34382;43.160;24.148;2022-12-29T03:32:43;13.20;;;6.78;;
48596;SDS011;34382;43.160;24.148;2022-12-29T03:34:18;12.45;;;7.22;;
48596;SDS011;34382;43.160;24.148;2022-12-29T03:35:53;15.75;;;8.05;;
48596;SDS011;34382;43.160;24.148;2022-12-29T03:37:34;13.02;;;7.22;;
48596;SDS011;34382;43.160;24.148;2022-12-29T03:39:09;12.13;;;6.72;;
48596;SDS011;34382;43.160;24.148;2022-12-29T03:40:46;13.23;;;7.00;;
48596;SDS011;34382;43.160;24.148;2022-12-29T03:42:21;12.13;;;6.82;;
48596;SDS011;34382;43.160;24.148;2022-12-29T03:43:55;13.20;;;6.68;;
48596;SDS011;34382;43.160;24.148;2022-12-29T03:45:27;13.13;;;6.75;;
48596;SDS011;34382;43.160;24.148;2022-12-29T03:46:59;10.80;;;6.15;;
48596;SDS011;34382;43.160;24.148;2022-12-29T03:48:31;13.38;;;6.88;;
48596;SDS011;34382;43.160;24.148;2022-12-29T03:50:05;11.18;;;5.95;;
48596;SDS011;34382;43.160;24.148;2022-12-29T03:51:40;12.63;;;6.30;;
48596;SDS011;34382;43.160;24.148;2022-12-29T03:53:11;13.05;;;7.07;;
48596;SDS011;34382;43.160;24.148;2022-12-29T03:54:44;14.10;;;7.88;;
48596;SDS011;34382;43.160;24.148;2022-12-29T03:56:16;11.55;;;6.28;;
48596;SDS011;34382;43.160;24.148;2022-12-29T03:57:48;12.20;;;7.25;;
48596;SDS011;34382;43.160;24.148;2022-12-29T03:59:20;14.20;;;6.57;;
48596;SDS011;34382;43.160;24.148;2022-12-29T04:00:52;13.40;;;6.38;;
48596;SDS011;34382;43.160;24.148;2022-12-29T04:02:24;12.07;;;6.30;;
48596;SDS011;34382;43.160;24.148;2022-12-29T04:03:57;13.50;;;6.43;;
48596;SDS011;34382;43.160;24.148;2022-12-29T04:05:29;12.45;;;6.22;;
48596;SDS011;34382;43.160;24.148;2022-12-29T04:07:01;10.38;;;5.43;;
48596;SDS011;34382;43.160;24.148;2022-12-29T04:08:33;12.50;;;6.55;;
48596;SDS011;34382;43.160;24.148;2022-12-29T04:10:05;13.98;;;6.28;;
48596;SDS011;34382;43.160;24.148;2022-12-29T04:11:37;13.32;;;6.40;;
48596;SDS011;34382;43.160;24.148;2022-12-29T04:13:09;11.65;;;5.80;;
48596;SDS011;34382;43.160;24.148;2022-12-29T04:14:41;11.02;;;6.00;;
48596;SDS011;34382;43.160;24.148;2022-12-29T04:16:14;11.30;;;6.20;;
48596;SDS011;34382;43.160;24.148;2022-12-29T04:17:46;11.60;;;6.55;;
48596;SDS011;34382;43.160;24.148;2022-12-29T04:19:18;12.88;;;6.53;;
48596;SDS011;34382;43.160;24.148;2022-12-29T04:20:50;10.82;;;6.20;;
48596;SDS011;34382;43.160;24.148;2022-12-29T04:22:31;11.63;;;6.18;;
48596;SDS011;34382;43.160;24.148;2022-12-29T04:25:44;12.57;;;7.20;;
48596;SDS011;34382;43.160;24.148;2022-12-29T04:27:18;12.35;;;6.35;;
48596;SDS011;34382;43.160;24.148;2022-12-29T04:28:50;13.07;;;6.82;;
48596;SDS011;34382;43.160;24.148;2022-12-29T04:30:22;12.80;;;6.57;;
48596;SDS011;34382;43.160;24.148;2022-12-29T04:31:54;12.00;;;6.50;;
48596;SDS011;34382;43.160;24.148;2022-12-29T04:33:26;11.88;;;6.85;;
48596;SDS011;34382;43.160;24.148;2022-12-29T04:34:58;15.52;;;7.30;;
48596;SDS011;34382;43.160;24.148;2022-12-29T04:36:30;13.68;;;6.75;;
48596;SDS011;34382;43.160;24.148;2022-12-29T04:38:02;12.52;;;6.15;;
48596;SDS011;34382;43.160;24.148;2022-12-29T04:39:34;12.30;;;6.80;;
48596;SDS011;34382;43.160;24.148;2022-12-29T04:41:07;11.20;;;6.28;;
48596;SDS011;34382;43.160;24.148;2022-12-29T04:42:39;12.35;;;7.35;;
48596;SDS011;34382;43.160;24.148;2022-12-29T04:44:11;12.77;;;6.65;;
48596;SDS011;34382;43.160;24.148;2022-12-29T04:45:45;12.63;;;6.55;;
48596;SDS011;34382;43.160;24.148;2022-12-29T04:47:17;12.32;;;6.78;;
48596;SDS011;34382;43.160;24.148;2022-12-29T04:48:49;11.85;;;6.80;;
48596;SDS011;34382;43.160;24.148;2022-12-29T04:50:21;13.00;;;6.40;;
48596;SDS011;34382;43.160;24.148;2022-12-29T04:51:53;11.77;;;6.38;;
48596;SDS011;34382;43.160;24.148;2022-12-29T04:53:25;12.73;;;7.07;;
48596;SDS011;34382;43.160;24.148;2022-12-29T04:54:57;11.07;;;6.32;;
48596;SDS011;34382;43.160;24.148;2022-12-29T04:56:29;11.20;;;6.82;;
48596;SDS011;34382;43.160;24.148;2022-12-29T04:58:01;11.52;;;6.03;;
48596;SDS011;34382;43.160;24.148;2022-12-29T04:59:34;13.95;;;6.57;;
48596;SDS011;34382;43.160;24.148;2022-12-29T05:01:06;13.07;;;7.00;;
48596;SDS011;34382;43.160;24.148;2022-12-29T05:02:38;11.57;;;6.18;;
48596;SDS011;34382;43.160;24.148;2022-12-29T05:04:10;10.23;;;5.55;;
48596;SDS011;34382;43.160;24.148;2022-12-29T05:05:42;11.10;;;6.20;;
48596;SDS011;34382;43.160;24.148;2022-12-29T05:07:14;11.98;;;5.55;;
48596;SDS011;34382;43.160;24.148;2022-12-29T05:08:48;11.65;;;5.43;;
48596;SDS011;34382;43.160;24.148;2022-12-29T05:10:20;11.38;;;5.78;;
48596;SDS011;34382;43.160;24.148;2022-12-29T05:11:52;12.48;;;6.35;;
48596;SDS011;34382;43.160;24.148;2022-12-29T05:13:24;11.27;;;5.75;;
48596;SDS011;34382;43.160;24.148;2022-12-29T05:14:56;10.95;;;5.40;;
48596;SDS011;34382;43.160;24.148;2022-12-29T05:16:28;11.00;;;5.82;;
48596;SDS011;34382;43.160;24.148;2022-12-29T05:18:16;16.40;;;8.15;;
48596;SDS011;34382;43.160;24.148;2022-12-29T05:19:48;13.13;;;7.45;;
48596;SDS011;34382;43.160;24.148;2022-12-29T05:21:20;13.15;;;7.07;;
48596;SDS011;34382;43.160;24.148;2022-12-29T05:22:52;13.48;;;6.75;;
48596;SDS011;34382;43.160;24.148;2022-12-29T05:24:24;11.63;;;7.30;;
48596;SDS011;34382;43.160;24.148;2022-12-29T05:25:56;13.13;;;6.90;;
48596;SDS011;34382;43.160;24.148;2022-12-29T05:27:28;12.85;;;7.07;;
48596;SDS011;34382;43.160;24.148;2022-12-29T05:29:00;12.70;;;6.65;;
48596;SDS011;34382;43.160;24.148;2022-12-29T05:30:32;14.80;;;7.32;;
48596;SDS011;34382;43.160;24.148;2022-12-29T05:32:04;13.00;;;7.13;;
48596;SDS011;34382;43.160;24.148;2022-12-29T05:33:37;14.98;;;6.90;;
48596;SDS011;34382;43.160;24.148;2022-12-29T05:35:09;12.88;;;6.72;;
48596;SDS011;34382;43.160;24.148;2022-12-29T05:36:41;13.90;;;6.85;;
48596;SDS011;34382;43.160;24.148;2022-12-29T05:38:13;13.40;;;6.65;;
48596;SDS011;34382;43.160;24.148;2022-12-29T05:39:45;12.52;;;6.82;;
48596;SDS011;34382;43.160;24.148;2022-12-29T05:41:17;12.15;;;6.90;;
48596;SDS011;34382;43.160;24.148;2022-12-29T05:42:50;13.07;;;6.70;;
48596;SDS011;34382;43.160;24.148;2022-12-29T05:44:22;12.38;;;6.55;;
48596;SDS011;34382;43.160;24.148;2022-12-29T05:45:54;12.18;;;6.75;;
48596;SDS011;34382;43.160;24.148;2022-12-29T05:47:27;11.80;;;6.07;;
48596;SDS011;34382;43.160;24.148;2022-12-29T05:48:59;10.73;;;6.22;;
48596;SDS011;34382;43.160;24.148;2022-12-29T05:50:31;11.90;;;7.38;;
48596;SDS011;34382;43.160;24.148;2022-12-29T05:54:18;13.30;;;6.75;;
48596;SDS011;34382;43.160;24.148;2022-12-29T05:55:51;12.20;;;6.63;;
48596;SDS011;34382;43.160;24.148;2022-12-29T05:57:23;12.93;;;7.10;;
48596;SDS011;34382;43.160;24.148;2022-12-29T06:00:27;11.82;;;6.68;;
48596;SDS011;34382;43.160;24.148;2022-12-29T06:01:59;12.02;;;6.82;;
48596;SDS011;34382;43.160;24.148;2022-12-29T06:03:31;11.25;;;6.13;;
48596;SDS011;34382;43.160;24.148;2022-12-29T06:05:04;13.23;;;6.20;;
48596;SDS011;34382;43.160;24.148;2022-12-29T06:06:36;12.25;;;7.47;;
48596;SDS011;34382;43.160;24.148;2022-12-29T06:08:09;14.80;;;8.65;;
48596;SDS011;34382;43.160;24.148;2022-12-29T06:09:40;13.98;;;7.07;;
48596;SDS011;34382;43.160;24.148;2022-12-29T06:11:13;14.13;;;7.55;;
48596;SDS011;34382;43.160;24.148;2022-12-29T06:12:45;15.93;;;7.82;;
48596;SDS011;34382;43.160;24.148;2022-12-29T06:14:17;14.45;;;8.15;;
48596;SDS011;34382;43.160;24.148;2022-12-29T06:15:49;17.10;;;8.93;;
48596;SDS011;34382;43.160;24.148;2022-12-29T06:17:22;13.77;;;8.30;;
48596;SDS011;34382;43.160;24.148;2022-12-29T06:18:58;15.05;;;7.97;;
48596;SDS011;34382;43.160;24.148;2022-12-29T06:20:31;16.65;;;8.20;;
48596;SDS011;34382;43.160;24.148;2022-12-29T06:22:03;15.25;;;8.07;;
48596;SDS011;34382;43.160;24.148;2022-12-29T06:23:35;14.32;;;7.82;;
48596;SDS011;34382;43.160;24.148;2022-12-29T06:25:07;15.48;;;8.27;;
48596;SDS011;34382;43.160;24.148;2022-12-29T06:26:39;16.40;;;8.13;;
48596;SDS011;34382;43.160;24.148;2022-12-29T06:28:11;17.38;;;7.57;;
48596;SDS011;34382;43.160;24.148;2022-12-29T06:29:44;13.75;;;7.50;;
48596;SDS011;34382;43.160;24.148;2022-12-29T06:31:16;13.63;;;8.15;;
48596;SDS011;34382;43.160;24.148;2022-12-29T06:32:48;22.33;;;12.57;;
48596;SDS011;34382;43.160;24.148;2022-12-29T06:34:20;19.05;;;11.88;;
48596;SDS011;34382;43.160;24.148;2022-12-29T06:35:52;16.83;;;7.90;;
48596;SDS011;34382;43.160;24.148;2022-12-29T06:37:24;24.40;;;13.60;;
48596;SDS011;34382;43.160;24.148;2022-12-29T06:38:56;19.45;;;11.40;;
48596;SDS011;34382;43.160;24.148;2022-12-29T06:40:28;14.25;;;8.23;;
48596;SDS011;34382;43.160;24.148;2022-12-29T06:42:01;12.57;;;7.97;;
48596;SDS011;34382;43.160;24.148;2022-12-29T06:43:33;15.95;;;9.02;;
48596;SDS011;34382;43.160;24.148;2022-12-29T06:45:07;15.45;;;8.60;;
48596;SDS011;34382;43.160;24.148;2022-12-29T06:46:42;14.20;;;7.78;;
48596;SDS011;34382;43.160;24.148;2022-12-29T06:48:14;14.10;;;7.45;;
48596;SDS011;34382;43.160;24.148;2022-12-29T06:49:47;15.68;;;7.70;;
48596;SDS011;34382;43.160;24.148;2022-12-29T06:51:19;14.40;;;7.88;;
48596;SDS011;34382;43.160;24.148;2022-12-29T06:52:51;17.85;;;8.35;;
48596;SDS011;34382;43.160;24.148;2022-12-29T06:54:23;16.73;;;8.35;;
48596;SDS011;34382;43.160;24.148;2022-12-29T06:55:55;13.13;;;7.55;;
48596;SDS011;34382;43.160;24.148;2022-12-29T06:57:28;17.05;;;9.07;;
48596;SDS011;34382;43.160;24.148;2022-12-29T06:59:00;18.45;;;11.05;;
48596;SDS011;34382;43.160;24.148;2022-12-29T07:00:32;19.30;;;11.35;;
48596;SDS011;34382;43.160;24.148;2022-12-29T07:02:05;17.35;;;10.00;;
48596;SDS011;34382;43.160;24.148;2022-12-29T07:03:37;16.80;;;9.70;;
48596;SDS011;34382;43.160;24.148;2022-12-29T07:05:09;14.18;;;8.48;;
48596;SDS011;34382;43.160;24.148;2022-12-29T07:06:41;14.82;;;7.80;;
48596;SDS011;34382;43.160;24.148;2022-12-29T07:08:13;14.85;;;7.10;;
48596;SDS011;34382;43.160;24.148;2022-12-29T07:11:19;18.15;;;7.55;;
48596;SDS011;34382;43.160;24.148;2022-12-29T07:12:51;13.90;;;7.15;;
48596;SDS011;34382;43.160;24.148;2022-12-29T07:14:23;15.25;;;7.43;;
48596;SDS011;34382;43.160;24.148;2022-12-29T07:15:55;12.90;;;7.60;;
48596;SDS011;34382;43.160;24.148;2022-12-29T07:17:27;14.05;;;7.70;;
48596;SDS011;34382;43.160;24.148;2022-12-29T07:18:59;12.85;;;7.30;;
48596;SDS011;34382;43.160;24.148;2022-12-29T07:20:31;13.02;;;7.57;;
48596;SDS011;34382;43.160;24.148;2022-12-29T07:22:04;15.70;;;7.65;;
48596;SDS011;34382;43.160;24.148;2022-12-29T07:23:36;12.95;;;7.28;;
48596;SDS011;34382;43.160;24.148;2022-12-29T07:25:08;12.48;;;7.13;;
48596;SDS011;34382;43.160;24.148;2022-12-29T07:26:40;15.10;;;8.02;;
48596;SDS011;34382;43.160;24.148;2022-12-29T07:28:13;15.35;;;7.70;;
48596;SDS011;34382;43.160;24.148;2022-12-29T07:29:45;13.07;;;7.55;;
48596;SDS011;34382;43.160;24.148;2022-12-29T07:31:18;13.88;;;8.48;;
48596;SDS011;34382;43.160;24.148;2022-12-29T07:32:52;13.15;;;8.52;;
48596;SDS011;34382;43.160;24.148;2022-12-29T07:34:24;13.68;;;7.95;;
48596;SDS011;34382;43.160;24.148;2022-12-29T07:35:56;14.75;;;9.00;;
48596;SDS011;34382;43.160;24.148;2022-12-29T07:37:28;17.13;;;8.75;;
48596;SDS011;34382;43.160;24.148;2022-12-29T07:39:01;16.55;;;9.52;;
48596;SDS011;34382;43.160;24.148;2022-12-29T07:40:33;20.38;;;11.52;;
48596;SDS011;34382;43.160;24.148;2022-12-29T07:42:05;17.27;;;10.90;;
48596;SDS011;34382;43.160;24.148;2022-12-29T07:43:37;17.88;;;10.57;;
48596;SDS011;34382;43.160;24.148;2022-12-29T07:45:10;17.20;;;10.68;;
48596;SDS011;34382;43.160;24.148;2022-12-29T07:46:42;17.80;;;10.05;;
48596;SDS011;34382;43.160;24.148;2022-12-29T07:48:27;16.15;;;10.00;;
48596;SDS011;34382;43.160;24.148;2022-12-29T07:49:59;17.10;;;9.63;;
48596;SDS011;34382;43.160;24.148;2022-12-29T07:51:31;14.73;;;9.48;;
48596;SDS011;34382;43.160;24.148;2022-12-29T07:53:03;16.58;;;10.07;;
48596;SDS011;34382;43.160;24.148;2022-12-29T07:54:35;15.77;;;9.25;;
48596;SDS011;34382;43.160;24.148;2022-12-29T07:56:07;15.82;;;9.35;;
48596;SDS011;34382;43.160;24.148;2022-12-29T07:57:40;16.67;;;9.82;;
48596;SDS011;34382;43.160;24.148;2022-12-29T07:59:12;16.80;;;9.48;;
48596;SDS011;34382;43.160;24.148;2022-12-29T08:00:44;16.08;;;9.48;;
48596;SDS011;34382;43.160;24.148;2022-12-29T08:02:16;17.52;;;10.25;;
48596;SDS011;34382;43.160;24.148;2022-12-29T08:03:48;16.90;;;10.10;;
48596;SDS011;34382;43.160;24.148;2022-12-29T08:05:27;17.10;;;11.65;;
48596;SDS011;34382;43.160;24.148;2022-12-29T08:06:59;19.15;;;11.50;;
48596;SDS011;34382;43.160;24.148;2022-12-29T08:08:31;21.73;;;12.82;;
48596;SDS011;34382;43.160;24.148;2022-12-29T08:10:03;18.58;;;12.38;;
48596;SDS011;34382;43.160;24.148;2022-12-29T08:11:36;22.10;;;13.45;;
48596;SDS011;34382;43.160;24.148;2022-12-29T08:13:08;25.73;;;14.55;;
48596;SDS011;34382;43.160;24.148;2022-12-29T08:14:40;22.33;;;13.77;;
48596;SDS011;34382;43.160;24.148;2022-12-29T08:16:12;22.45;;;13.93;;
48596;SDS011;34382;43.160;24.148;2022-12-29T08:17:44;22.42;;;14.73;;
48596;SDS011;34382;43.160;24.148;2022-12-29T08:19:17;25.30;;;14.85;;
48596;SDS011;34382;43.160;24.148;2022-12-29T08:20:49;24.17;;;15.27;;
48596;SDS011;34382;43.160;24.148;2022-12-29T08:22:26;22.02;;;14.07;;
48596;SDS011;34382;43.160;24.148;2022-12-29T08:23:58;22.15;;;14.18;;
48596;SDS011;34382;43.160;24.148;2022-12-29T08:25:30;20.15;;;14.02;;
48596;SDS011;34382;43.160;24.148;2022-12-29T08:27:02;24.58;;;15.02;;
48596;SDS011;34382;43.160;24.148;2022-12-29T08:28:46;22.88;;;14.60;;
48596;SDS011;34382;43.160;24.148;2022-12-29T08:30:18;22.70;;;14.70;;
48596;SDS011;34382;43.160;24.148;2022-12-29T08:31:50;21.65;;;13.98;;
48596;SDS011;34382;43.160;24.148;2022-12-29T08:33:22;23.60;;;13.65;;
48596;SDS011;34382;43.160;24.148;2022-12-29T08:34:54;28.63;;;20.48;;
48596;SDS011;34382;43.160;24.148;2022-12-29T08:36:26;23.48;;;15.40;;
48596;SDS011;34382;43.160;24.148;2022-12-29T08:37:59;24.73;;;15.38;;
48596;SDS011;34382;43.160;24.148;2022-12-29T08:39:31;22.98;;;15.20;;
48596;SDS011;34382;43.160;24.148;2022-12-29T08:41:03;26.13;;;15.68;;
48596;SDS011;34382;43.160;24.148;2022-12-29T08:42:35;27.25;;;17.73;;
48596;SDS011;34382;43.160;24.148;2022-12-29T08:44:07;34.88;;;22.80;;
48596;SDS011;34382;43.160;24.148;2022-12-29T08:45:39;33.83;;;22.52;;
48596;SDS011;34382;43.160;24.148;2022-12-29T08:47:12;29.13;;;18.60;;
48596;SDS011;34382;43.160;24.148;2022-12-29T08:48:44;31.67;;;20.33;;
48596;SDS011;34382;43.160;24.148;2022-12-29T08:50:16;29.00;;;18.88;;
48596;SDS011;34382;43.160;24.148;2022-12-29T08:51:49;29.73;;;18.35;;
48596;SDS011;34382;43.160;24.148;2022-12-29T08:53:22;21.35;;;15.10;;
48596;SDS011;34382;43.160;24.148;2022-12-29T08:54:54;25.60;;;16.75;;
48596;SDS011;34382;43.160;24.148;2022-12-29T08:56:26;28.63;;;17.75;;
48596;SDS011;34382;43.160;24.148;2022-12-29T08:57:59;21.38;;;14.23;;
48596;SDS011;34382;43.160;24.148;2022-12-29T08:59:31;26.48;;;16.67;;
48596;SDS011;34382;43.160;24.148;2022-12-29T09:01:03;23.00;;;14.20;;
48596;SDS011;34382;43.160;24.148;2022-12-29T09:02:35;19.25;;;12.13;;
48596;SDS011;34382;43.160;24.148;2022-12-29T09:04:08;18.00;;;12.10;;
48596;SDS011;34382;43.160;24.148;2022-12-29T09:05:49;18.58;;;11.00;;
48596;SDS011;34382;43.160;24.148;2022-12-29T09:07:22;17.48;;;10.93;;
48596;SDS011;34382;43.160;24.148;2022-12-29T09:08:54;16.63;;;10.25;;
48596;SDS011;34382;43.160;24.148;2022-12-29T09:10:27;25.97;;;16.63;;
48596;SDS011;34382;43.160;24.148;2022-12-29T09:11:59;28.92;;;14.60;;
48596;SDS011;34382;43.160;24.148;2022-12-29T09:13:31;18.45;;;10.80;;
48596;SDS011;34382;43.160;24.148;2022-12-29T09:15:03;17.02;;;10.32;;
48596;SDS011;34382;43.160;24.148;2022-12-29T09:16:37;17.38;;;10.63;;
48596;SDS011;34382;43.160;24.148;2022-12-29T09:18:10;17.27;;;9.95;;
48596;SDS011;34382;43.160;24.148;2022-12-29T09:19:50;17.65;;;10.00;;
48596;SDS011;34382;43.160;24.148;2022-12-29T09:21:22;18.52;;;11.57;;
48596;SDS011;34382;43.160;24.148;2022-12-29T09:22:54;18.85;;;10.88;;
48596;SDS011;34382;43.160;24.148;2022-12-29T09:24:26;15.88;;;9.60;;
48596;SDS011;34382;43.160;24.148;2022-12-29T09:25:58;14.63;;;9.40;;
48596;SDS011;34382;43.160;24.148;2022-12-29T09:27:31;20.98;;;10.57;;
48596;SDS011;34382;43.160;24.148;2022-12-29T09:29:03;18.70;;;11.55;;
48596;SDS011;34382;43.160;24.148;2022-12-29T09:30:35;17.60;;;12.10;;
48596;SDS011;34382;43.160;24.148;2022-12-29T09:32:07;16.42;;;9.73;;
48596;SDS011;34382;43.160;24.148;2022-12-29T09:33:47;18.20;;;9.98;;
48596;SDS011;34382;43.160;24.148;2022-12-29T09:35:19;17.85;;;10.02;;
48596;SDS011;34382;43.160;24.148;2022-12-29T09:36:51;19.90;;;10.00;;
48596;SDS011;34382;43.160;24.148;2022-12-29T09:38:24;17.77;;;10.65;;
48596;SDS011;34382;43.160;24.148;2022-12-29T09:39:57;14.68;;;9.13;;
48596;SDS011;34382;43.160;24.148;2022-12-29T09:41:35;16.98;;;9.95;;
48596;SDS011;34382;43.160;24.148;2022-12-29T09:46:50;27.05;;;18.42;;
48596;SDS011;34382;43.160;24.148;2022-12-29T09:48:27;25.50;;;12.75;;
48596;SDS011;34382;43.160;24.148;2022-12-29T09:51:53;23.48;;;14.30;;
48596;SDS011;34382;43.160;24.148;2022-12-29T09:53:31;18.55;;;10.50;;
48596;SDS011;34382;43.160;24.148;2022-12-29T09:56:44;16.10;;;9.90;;
48596;SDS011;34382;43.160;24.148;2022-12-29T09:58:39;15.90;;;9.50;;
48596;SDS011;34382;43.160;24.148;2022-12-29T10:00:12;21.20;;;12.60;;
48596;SDS011;34382;43.160;24.148;2022-12-29T10:01:51;17.92;;;9.98;;
48596;SDS011;34382;43.160;24.148;2022-12-29T10:03:47;14.82;;;8.90;;
48596;SDS011;34382;43.160;24.148;2022-12-29T10:05:27;16.77;;;8.63;;
48596;SDS011;34382;43.160;24.148;2022-12-29T10:07:11;20.15;;;12.38;;
48596;SDS011;34382;43.160;24.148;2022-12-29T10:09:15;18.00;;;9.32;;